sensor_id;sensor_type;location;lat;lon;timestamp;temperature;humidity
52787;DHT22;38661;53.152;5.846;2024-03-23T00:55:43;5.50;94.00
52787;DHT22;38661;53.152;5.846;2024-03-23T00:58:09;5.50;94.00
52787;DHT22;38661;53.152;5.846;2024-03-23T01:00:35;5.50;94.10
52787;DHT22;38661;53.152;5.846;2024-03-23T01:03:01;5.50;94.10
52787;DHT22;38661;53.152;5.846;2024-03-23T01:05:27;5.40;94.00
52787;DHT22;38661;53.152;5.846;2024-03-23T01:07:52;5.30;94.00
52787;DHT22;38661;53.152;5.846;2024-03-23T01:10:18;5.30;94.00
52787;DHT22;38661;53.152;5.846;2024-03-23T01:12:44;5.30;94.10
52787;DHT22;38661;53.152;5.846;2024-03-23T01:15:09;5.30;94.00
52787;DHT22;38661;53.152;5.846;2024-03-23T01:17:35;5.20;94.00
52787;DHT22;38661;53.152;5.846;2024-03-23T01:20:01;5.20;93.80
52787;DHT22;38661;53.152;5.846;2024-03-23T01:22:26;5.10;93.90
52787;DHT22;38661;53.152;5.846;2024-03-23T01:24:52;5.10;93.80
52787;DHT22;38661;53.152;5.846;2024-03-23T01:27:18;5.10;93.80
52787;DHT22;38661;53.152;5.846;2024-03-23T01:29:46;5.10;93.70
52787;DHT22;38661;53.152;5.846;2024-03-23T01:32:12;5.00;93.70
52787;DHT22;38661;53.152;5.846;2024-03-23T01:34:38;5.00;93.70
52787;DHT22;38661;53.152;5.846;2024-03-23T01:37:04;5.00;93.80
52787;DHT22;38661;53.152;5.846;2024-03-23T01:39:30;4.90;93.70
52787;DHT22;38661;53.152;5.846;2024-03-23T01:41:55;4.90;93.70
52787;DHT22;38661;53.152;5.846;2024-03-23T01:44:21;4.90;93.80
52787;DHT22;38661;53.152;5.846;2024-03-23T01:46:47;4.90;93.60
52787;DHT22;38661;53.152;5.846;2024-03-23T01:49:13;4.90;93.80
52787;DHT22;38661;53.152;5.846;2024-03-23T01:51:39;4.90;93.60
52787;DHT22;38661;53.152;5.846;2024-03-23T01:54:06;4.90;93.60
52787;DHT22;38661;53.152;5.846;2024-03-23T01:56:33;4.90;93.50
52787;DHT22;38661;53.152;5.846;2024-03-23T01:59:05;4.80;93.50
52787;DHT22;38661;53.152;5.846;2024-03-23T02:01:37;4.80;93.50
52787;DHT22;38661;53.152;5.846;2024-03-23T02:04:03;4.80;93.50
52787;DHT22;38661;53.152;5.846;2024-03-23T02:06:28;4.80;93.30
52787;DHT22;38661;53.152;5.846;2024-03-23T02:08:57;4.80;93.40
52787;DHT22;38661;53.152;5.846;2024-03-23T02:11:23;4.80;93.30
52787;DHT22;38661;53.152;5.846;2024-03-23T02:13:49;4.80;93.40
52787;DHT22;38661;53.152;5.846;2024-03-23T02:16:15;4.80;93.30
52787;DHT22;38661;53.152;5.846;2024-03-23T02:18:40;4.80;93.30
52787;DHT22;38661;53.152;5.846;2024-03-23T02:21:06;4.80;93.30
52787;DHT22;38661;53.152;5.846;2024-03-23T02:23:32;4.80;93.30
52787;DHT22;38661;53.152;5.846;2024-03-23T02:25:57;4.80;93.30
52787;DHT22;38661;53.152;5.846;2024-03-23T02:28:23;4.80;93.30
52787;DHT22;38661;53.152;5.846;2024-03-23T02:30:49;4.80;93.20
52787;DHT22;38661;53.152;5.846;2024-03-23T02:33:15;4.80;93.10
52787;DHT22;38661;53.152;5.846;2024-03-23T02:35:41;4.80;93.10
52787;DHT22;38661;53.152;5.846;2024-03-23T02:38:07;4.70;93.00
52787;DHT22;38661;53.152;5.846;2024-03-23T02:40:33;4.80;93.10
52787;DHT22;38661;53.152;5.846;2024-03-23T02:42:58;4.70;93.10
52787;DHT22;38661;53.152;5.846;2024-03-23T02:45:24;4.70;93.10
52787;DHT22;38661;53.152;5.846;2024-03-23T02:47:50;4.80;93.00
52787;DHT22;38661;53.152;5.846;2024-03-23T02:50:21;4.80;93.00
52787;DHT22;38661;53.152;5.846;2024-03-23T02:52:47;4.70;93.00
52787;DHT22;38661;53.152;5.846;2024-03-23T02:55:13;4.70;93.00
52787;DHT22;38661;53.152;5.846;2024-03-23T02:57:39;4.70;93.00
52787;DHT22;38661;53.152;5.846;2024-03-23T03:00:05;4.70;93.00
52787;DHT22;38661;53.152;5.846;2024-03-23T03:02:33;4.70;93.00
52787;DHT22;38661;53.152;5.846;2024-03-23T03:04:58;4.70;93.00
52787;DHT22;38661;53.152;5.846;2024-03-23T03:07:24;4.70;93.00
52787;DHT22;38661;53.152;5.846;2024-03-23T03:09:50;4.70;92.90
52787;DHT22;38661;53.152;5.846;2024-03-23T03:12:15;4.70;92.90
52787;DHT22;38661;53.152;5.846;2024-03-23T03:14:41;4.70;92.90
52787;DHT22;38661;53.152;5.846;2024-03-23T03:17:07;4.70;92.80
52787;DHT22;38661;53.152;5.846;2024-03-23T03:19:32;4.70;92.80
52787;DHT22;38661;53.152;5.846;2024-03-23T03:21:58;4.70;92.80
52787;DHT22;38661;53.152;5.846;2024-03-23T03:24:24;4.70;92.80
52787;DHT22;38661;53.152;5.846;2024-03-23T03:26:49;4.70;92.90
52787;DHT22;38661;53.152;5.846;2024-03-23T03:29:15;4.70;92.80
52787;DHT22;38661;53.152;5.846;2024-03-23T03:31:44;4.60;92.80
52787;DHT22;38661;53.152;5.846;2024-03-23T03:34:10;4.60;92.90
52787;DHT22;38661;53.152;5.846;2024-03-23T03:36:36;4.60;93.00
52787;DHT22;38661;53.152;5.846;2024-03-23T03:39:02;4.60;93.00
52787;DHT22;38661;53.152;5.846;2024-03-23T03:41:31;4.50;93.10
52787;DHT22;38661;53.152;5.846;2024-03-23T03:43:58;4.60;93.00
52787;DHT22;38661;53.152;5.846;2024-03-23T03:46:30;4.60;93.00
52787;DHT22;38661;53.152;5.846;2024-03-23T03:48:56;4.60;93.00
52787;DHT22;38661;53.152;5.846;2024-03-23T03:51:21;4.60;93.00
52787;DHT22;38661;53.152;5.846;2024-03-23T03:53:47;4.60;93.00
52787;DHT22;38661;53.152;5.846;2024-03-23T03:56:13;4.60;93.10
52787;DHT22;38661;53.152;5.846;2024-03-23T03:58:39;4.60;93.10
52787;DHT22;38661;53.152;5.846;2024-03-23T04:01:05;4.60;93.00
52787;DHT22;38661;53.152;5.846;2024-03-23T04:03:31;4.70;93.00
52787;DHT22;38661;53.152;5.846;2024-03-23T04:05:56;4.70;93.00
52787;DHT22;38661;53.152;5.846;2024-03-23T04:08:23;4.60;93.10
52787;DHT22;38661;53.152;5.846;2024-03-23T04:10:49;4.70;93.20
52787;DHT22;38661;53.152;5.846;2024-03-23T04:13:15;4.70;93.10
52787;DHT22;38661;53.152;5.846;2024-03-23T04:15:42;4.70;93.10
52787;DHT22;38661;53.152;5.846;2024-03-23T04:18:07;4.70;93.10
52787;DHT22;38661;53.152;5.846;2024-03-23T04:20:33;4.70;93.10
52787;DHT22;38661;53.152;5.846;2024-03-23T04:22:59;4.70;93.20
52787;DHT22;38661;53.152;5.846;2024-03-23T04:25:25;4.80;93.20
52787;DHT22;38661;53.152;5.846;2024-03-23T04:27:50;4.80;93.10
52787;DHT22;38661;53.152;5.846;2024-03-23T04:30:17;4.80;93.00
52787;DHT22;38661;53.152;5.846;2024-03-23T04:32:43;4.80;93.10
52787;DHT22;38661;53.152;5.846;2024-03-23T04:35:08;4.80;93.20
52787;DHT22;38661;53.152;5.846;2024-03-23T04:37:38;4.70;93.10
52787;DHT22;38661;53.152;5.846;2024-03-23T04:40:07;4.70;93.20
52787;DHT22;38661;53.152;5.846;2024-03-23T04:42:33;4.70;93.20
52787;DHT22;38661;53.152;5.846;2024-03-23T04:44:59;4.80;93.30
52787;DHT22;38661;53.152;5.846;2024-03-23T04:47:25;4.70;93.30
52787;DHT22;38661;53.152;5.846;2024-03-23T04:49:51;4.70;93.20
52787;DHT22;38661;53.152;5.846;2024-03-23T04:52:17;4.70;93.30
52787;DHT22;38661;53.152;5.846;2024-03-23T04:54:43;4.70;93.30
52787;DHT22;38661;53.152;5.846;2024-03-23T04:57:09;4.70;93.30
52787;DHT22;38661;53.152;5.846;2024-03-23T04:59:35;4.70;93.30
52787;DHT22;38661;53.152;5.846;2024-03-23T05:02:00;4.70;93.30
52787;DHT22;38661;53.152;5.846;2024-03-23T05:04:27;4.70;93.30
52787;DHT22;38661;53.152;5.846;2024-03-23T05:06:52;4.70;93.30
52787;DHT22;38661;53.152;5.846;2024-03-23T05:09:19;4.70;93.30
52787;DHT22;38661;53.152;5.846;2024-03-23T05:11:45;4.80;93.40
52787;DHT22;38661;53.152;5.846;2024-03-23T05:14:13;4.70;93.10
52787;DHT22;38661;53.152;5.846;2024-03-23T05:16:39;4.60;92.70
52787;DHT22;38661;53.152;5.846;2024-03-23T05:19:05;4.60;92.80
52787;DHT22;38661;53.152;5.846;2024-03-23T05:21:31;4.60;92.60
52787;DHT22;38661;53.152;5.846;2024-03-23T05:23:56;4.60;92.80
52787;DHT22;38661;53.152;5.846;2024-03-23T05:26:22;4.60;92.70
52787;DHT22;38661;53.152;5.846;2024-03-23T05:28:48;4.70;92.80
52787;DHT22;38661;53.152;5.846;2024-03-23T05:31:31;4.70;92.70
52787;DHT22;38661;53.152;5.846;2024-03-23T05:33:57;4.80;92.80
52787;DHT22;38661;53.152;5.846;2024-03-23T05:36:23;4.80;92.80
52787;DHT22;38661;53.152;5.846;2024-03-23T05:38:50;4.80;92.90
52787;DHT22;38661;53.152;5.846;2024-03-23T05:41:15;4.80;93.00
52787;DHT22;38661;53.152;5.846;2024-03-23T05:43:41;4.80;93.00
52787;DHT22;38661;53.152;5.846;2024-03-23T05:46:07;4.90;93.10
52787;DHT22;38661;53.152;5.846;2024-03-23T05:48:36;5.00;93.10
52787;DHT22;38661;53.152;5.846;2024-03-23T05:51:01;5.00;93.10
52787;DHT22;38661;53.152;5.846;2024-03-23T05:53:28;5.10;93.20
52787;DHT22;38661;53.152;5.846;2024-03-23T05:56:03;5.10;93.00
52787;DHT22;38661;53.152;5.846;2024-03-23T05:58:32;5.10;93.10
52787;DHT22;38661;53.152;5.846;2024-03-23T06:01:00;5.10;93.10
52787;DHT22;38661;53.152;5.846;2024-03-23T06:03:27;5.20;93.20
52787;DHT22;38661;53.152;5.846;2024-03-23T06:05:53;5.30;93.20
52787;DHT22;38661;53.152;5.846;2024-03-23T06:08:19;5.30;93.20
52787;DHT22;38661;53.152;5.846;2024-03-23T06:10:46;5.40;93.20
52787;DHT22;38661;53.152;5.846;2024-03-23T06:13:12;5.50;93.30
52787;DHT22;38661;53.152;5.846;2024-03-23T06:15:38;5.60;92.40
52787;DHT22;38661;53.152;5.846;2024-03-23T06:18:04;5.60;91.10
52787;DHT22;38661;53.152;5.846;2024-03-23T06:20:30;5.60;90.30
52787;DHT22;38661;53.152;5.846;2024-03-23T06:22:56;5.70;90.10
52787;DHT22;38661;53.152;5.846;2024-03-23T06:25:22;5.70;90.10
52787;DHT22;38661;53.152;5.846;2024-03-23T06:27:48;5.60;90.00
52787;DHT22;38661;53.152;5.846;2024-03-23T06:30:13;5.50;90.00
52787;DHT22;38661;53.152;5.846;2024-03-23T06:32:39;5.40;90.00
52787;DHT22;38661;53.152;5.846;2024-03-23T06:35:05;5.30;90.00
52787;DHT22;38661;53.152;5.846;2024-03-23T06:37:35;5.30;90.20
52787;DHT22;38661;53.152;5.846;2024-03-23T06:40:00;5.30;90.40
52787;DHT22;38661;53.152;5.846;2024-03-23T06:42:26;5.30;90.50
52787;DHT22;38661;53.152;5.846;2024-03-23T06:44:52;5.30;90.60
52787;DHT22;38661;53.152;5.846;2024-03-23T06:47:17;5.30;90.50
52787;DHT22;38661;53.152;5.846;2024-03-23T06:49:43;5.30;90.70
52787;DHT22;38661;53.152;5.846;2024-03-23T06:52:09;5.40;90.60
52787;DHT22;38661;53.152;5.846;2024-03-23T06:54:34;5.40;90.60
52787;DHT22;38661;53.152;5.846;2024-03-23T06:57:00;5.50;90.70
52787;DHT22;38661;53.152;5.846;2024-03-23T06:59:26;5.40;90.70
52787;DHT22;38661;53.152;5.846;2024-03-23T07:01:51;5.40;90.90
52787;DHT22;38661;53.152;5.846;2024-03-23T07:04:17;5.50;91.00
52787;DHT22;38661;53.152;5.846;2024-03-23T07:06:44;5.50;91.10
52787;DHT22;38661;53.152;5.846;2024-03-23T07:09:10;5.50;91.10
52787;DHT22;38661;53.152;5.846;2024-03-23T07:11:36;5.60;91.00
52787;DHT22;38661;53.152;5.846;2024-03-23T07:14:02;5.60;91.10
52787;DHT22;38661;53.152;5.846;2024-03-23T07:16:28;5.80;91.10
52787;DHT22;38661;53.152;5.846;2024-03-23T07:18:54;6.00;91.00
52787;DHT22;38661;53.152;5.846;2024-03-23T07:21:21;6.10;90.80
52787;DHT22;38661;53.152;5.846;2024-03-23T07:23:46;6.20;90.80
52787;DHT22;38661;53.152;5.846;2024-03-23T07:26:12;6.30;90.80
52787;DHT22;38661;53.152;5.846;2024-03-23T07:28:38;6.30;90.70
52787;DHT22;38661;53.152;5.846;2024-03-23T07:31:10;6.40;90.80
52787;DHT22;38661;53.152;5.846;2024-03-23T07:33:37;6.40;90.90
52787;DHT22;38661;53.152;5.846;2024-03-23T07:36:04;6.40;90.70
52787;DHT22;38661;53.152;5.846;2024-03-23T07:38:29;6.40;90.30
52787;DHT22;38661;53.152;5.846;2024-03-23T07:41:09;6.50;90.30
52787;DHT22;38661;53.152;5.846;2024-03-23T07:43:36;6.60;90.20
52787;DHT22;38661;53.152;5.846;2024-03-23T07:46:01;6.60;90.00
52787;DHT22;38661;53.152;5.846;2024-03-23T07:48:29;6.70;89.90
52787;DHT22;38661;53.152;5.846;2024-03-23T07:51:06;6.80;89.70
52787;DHT22;38661;53.152;5.846;2024-03-23T07:53:32;6.90;88.80
52787;DHT22;38661;53.152;5.846;2024-03-23T07:56:00;6.90;88.00
52787;DHT22;38661;53.152;5.846;2024-03-23T07:58:26;7.00;87.70
52787;DHT22;38661;53.152;5.846;2024-03-23T08:00:53;7.10;87.00
52787;DHT22;38661;53.152;5.846;2024-03-23T08:03:19;7.20;86.40
52787;DHT22;38661;53.152;5.846;2024-03-23T08:05:45;7.30;85.80
52787;DHT22;38661;53.152;5.846;2024-03-23T08:08:11;7.30;85.40
52787;DHT22;38661;53.152;5.846;2024-03-23T08:10:58;7.40;84.70
52787;DHT22;38661;53.152;5.846;2024-03-23T08:13:23;7.40;85.00
52787;DHT22;38661;53.152;5.846;2024-03-23T08:15:49;7.50;83.60
52787;DHT22;38661;53.152;5.846;2024-03-23T08:18:15;7.50;83.20
52787;DHT22;38661;53.152;5.846;2024-03-23T08:20:43;7.50;83.60
52787;DHT22;38661;53.152;5.846;2024-03-23T08:23:09;7.60;83.90
52787;DHT22;38661;53.152;5.846;2024-03-23T08:25:35;7.70;83.90
52787;DHT22;38661;53.152;5.846;2024-03-23T08:28:01;7.70;84.20
52787;DHT22;38661;53.152;5.846;2024-03-23T08:30:27;7.80;84.50
52787;DHT22;38661;53.152;5.846;2024-03-23T08:32:53;7.90;84.20
52787;DHT22;38661;53.152;5.846;2024-03-23T08:35:19;8.00;84.10
52787;DHT22;38661;53.152;5.846;2024-03-23T08:37:45;8.10;83.60
52787;DHT22;38661;53.152;5.846;2024-03-23T08:40:11;8.10;81.60
52787;DHT22;38661;53.152;5.846;2024-03-23T08:42:37;8.20;81.80
52787;DHT22;38661;53.152;5.846;2024-03-23T08:45:03;8.40;82.20
52787;DHT22;38661;53.152;5.846;2024-03-23T08:47:28;8.60;82.00
52787;DHT22;38661;53.152;5.846;2024-03-23T08:49:54;8.60;81.20
52787;DHT22;38661;53.152;5.846;2024-03-23T08:52:20;8.50;80.60
52787;DHT22;38661;53.152;5.846;2024-03-23T08:54:48;8.20;81.20
52787;DHT22;38661;53.152;5.846;2024-03-23T08:57:14;7.90;82.00
52787;DHT22;38661;53.152;5.846;2024-03-23T08:59:40;7.70;82.40
52787;DHT22;38661;53.152;5.846;2024-03-23T09:02:05;7.60;82.10
52787;DHT22;38661;53.152;5.846;2024-03-23T09:04:31;7.50;82.50
52787;DHT22;38661;53.152;5.846;2024-03-23T09:06:57;7.30;83.10
52787;DHT22;38661;53.152;5.846;2024-03-23T09:09:24;7.10;83.60
52787;DHT22;38661;53.152;5.846;2024-03-23T09:11:50;6.90;83.50
52787;DHT22;38661;53.152;5.846;2024-03-23T09:14:15;6.70;83.50
52787;DHT22;38661;53.152;5.846;2024-03-23T09:16:41;6.70;84.00
52787;DHT22;38661;53.152;5.846;2024-03-23T09:19:07;6.70;84.10
52787;DHT22;38661;53.152;5.846;2024-03-23T09:21:33;6.90;84.80
52787;DHT22;38661;53.152;5.846;2024-03-23T09:23:58;7.10;85.00
52787;DHT22;38661;53.152;5.846;2024-03-23T09:26:24;7.30;84.90
52787;DHT22;38661;53.152;5.846;2024-03-23T09:28:50;7.60;85.20
52787;DHT22;38661;53.152;5.846;2024-03-23T09:31:15;7.80;84.30
52787;DHT22;38661;53.152;5.846;2024-03-23T09:33:41;8.00;84.40
52787;DHT22;38661;53.152;5.846;2024-03-23T09:36:07;8.30;84.30
52787;DHT22;38661;53.152;5.846;2024-03-23T09:38:33;8.60;84.10
52787;DHT22;38661;53.152;5.846;2024-03-23T09:40:59;8.80;83.20
52787;DHT22;38661;53.152;5.846;2024-03-23T09:43:25;9.00;83.40
52787;DHT22;38661;53.152;5.846;2024-03-23T09:45:51;9.00;81.00
52787;DHT22;38661;53.152;5.846;2024-03-23T09:48:17;8.70;79.00
52787;DHT22;38661;53.152;5.846;2024-03-23T09:50:44;8.30;76.60
52787;DHT22;38661;53.152;5.846;2024-03-23T09:53:12;8.10;79.30
52787;DHT22;38661;53.152;5.846;2024-03-23T09:55:40;8.10;81.30
52787;DHT22;38661;53.152;5.846;2024-03-23T09:58:06;8.20;81.80
52787;DHT22;38661;53.152;5.846;2024-03-23T10:00:33;8.30;81.80
52787;DHT22;38661;53.152;5.846;2024-03-23T10:02:59;8.50;81.80
52787;DHT22;38661;53.152;5.846;2024-03-23T10:05:29;8.70;80.30
52787;DHT22;38661;53.152;5.846;2024-03-23T10:07:56;8.80;80.00
52787;DHT22;38661;53.152;5.846;2024-03-23T10:10:25;8.70;79.60
52787;DHT22;38661;53.152;5.846;2024-03-23T10:12:51;8.80;79.70
52787;DHT22;38661;53.152;5.846;2024-03-23T10:15:24;8.90;79.80
52787;DHT22;38661;53.152;5.846;2024-03-23T10:17:51;9.20;79.30
52787;DHT22;38661;53.152;5.846;2024-03-23T10:20:21;9.10;79.70
52787;DHT22;38661;53.152;5.846;2024-03-23T10:22:50;8.70;79.70
52787;DHT22;38661;53.152;5.846;2024-03-23T10:25:17;8.40;80.00
52787;DHT22;38661;53.152;5.846;2024-03-23T10:27:43;8.00;80.70
52787;DHT22;38661;53.152;5.846;2024-03-23T10:32:35;7.80;83.50
52787;DHT22;38661;53.152;5.846;2024-03-23T10:35:22;8.00;84.60
52787;DHT22;38661;53.152;5.846;2024-03-23T10:37:48;8.10;85.00
52787;DHT22;38661;53.152;5.846;2024-03-23T10:40:17;8.40;84.80
52787;DHT22;38661;53.152;5.846;2024-03-23T10:42:44;8.60;85.00
52787;DHT22;38661;53.152;5.846;2024-03-23T10:45:10;8.80;80.20
52787;DHT22;38661;53.152;5.846;2024-03-23T10:47:37;8.80;77.40
52787;DHT22;38661;53.152;5.846;2024-03-23T10:50:04;9.00;76.50
52787;DHT22;38661;53.152;5.846;2024-03-23T10:52:32;9.00;77.90
52787;DHT22;38661;53.152;5.846;2024-03-23T10:54:59;9.20;78.00
52787;DHT22;38661;53.152;5.846;2024-03-23T10:57:51;9.20;78.10
52787;DHT22;38661;53.152;5.846;2024-03-23T11:00:16;9.20;77.60
52787;DHT22;38661;53.152;5.846;2024-03-23T11:02:42;9.10;78.20
52787;DHT22;38661;53.152;5.846;2024-03-23T11:07:52;9.30;77.80
52787;DHT22;38661;53.152;5.846;2024-03-23T11:10:26;9.10;77.70
52787;DHT22;38661;53.152;5.846;2024-03-23T11:12:53;9.00;76.90
52787;DHT22;38661;53.152;5.846;2024-03-23T11:15:19;8.60;76.50
52787;DHT22;38661;53.152;5.846;2024-03-23T11:18:07;8.30;77.20
52787;DHT22;38661;53.152;5.846;2024-03-23T11:20:37;8.10;78.10
52787;DHT22;38661;53.152;5.846;2024-03-23T11:23:03;8.00;78.80
52787;DHT22;38661;53.152;5.846;2024-03-23T11:25:29;8.00;79.20
52787;DHT22;38661;53.152;5.846;2024-03-23T11:27:57;8.10;79.20
52787;DHT22;38661;53.152;5.846;2024-03-23T11:30:27;8.30;79.60
52787;DHT22;38661;53.152;5.846;2024-03-23T11:32:55;8.50;79.40
52787;DHT22;38661;53.152;5.846;2024-03-23T11:38:37;8.50;78.80
52787;DHT22;38661;53.152;5.846;2024-03-23T11:40:56;8.20;79.70
52787;DHT22;38661;53.152;5.846;2024-03-23T11:43:21;8.30;80.20
52787;DHT22;38661;53.152;5.846;2024-03-23T11:45:49;8.40;80.70
52787;DHT22;38661;53.152;5.846;2024-03-23T11:48:22;8.70;80.40
52787;DHT22;38661;53.152;5.846;2024-03-23T11:50:56;8.80;80.10
52787;DHT22;38661;53.152;5.846;2024-03-23T11:53:24;8.80;79.80
52787;DHT22;38661;53.152;5.846;2024-03-23T11:55:54;8.60;80.50
52787;DHT22;38661;53.152;5.846;2024-03-23T11:58:22;8.50;80.50
52787;DHT22;38661;53.152;5.846;2024-03-23T12:00:58;8.70;79.60
52787;DHT22;38661;53.152;5.846;2024-03-23T12:03:26;9.00;78.70
52787;DHT22;38661;53.152;5.846;2024-03-23T12:05:54;9.00;78.90
52787;DHT22;38661;53.152;5.846;2024-03-23T12:08:24;8.80;79.10
52787;DHT22;38661;53.152;5.846;2024-03-23T12:11:09;8.60;77.90
52787;DHT22;38661;53.152;5.846;2024-03-23T12:13:36;8.10;79.10
52787;DHT22;38661;53.152;5.846;2024-03-23T12:18:40;7.70;82.70
52787;DHT22;38661;53.152;5.846;2024-03-23T12:21:06;7.50;83.80
52787;DHT22;38661;53.152;5.846;2024-03-23T12:23:33;7.70;84.30
52787;DHT22;38661;53.152;5.846;2024-03-23T12:25:59;7.70;84.60
52787;DHT22;38661;53.152;5.846;2024-03-23T12:28:25;7.60;85.10
52787;DHT22;38661;53.152;5.846;2024-03-23T12:30:52;7.60;84.50
52787;DHT22;38661;53.152;5.846;2024-03-23T12:33:21;7.70;84.40
52787;DHT22;38661;53.152;5.846;2024-03-23T12:35:48;7.70;84.30
52787;DHT22;38661;53.152;5.846;2024-03-23T12:38:13;7.50;84.30
52787;DHT22;38661;53.152;5.846;2024-03-23T12:40:45;7.50;84.70
52787;DHT22;38661;53.152;5.846;2024-03-23T12:43:13;7.80;84.40
52787;DHT22;38661;53.152;5.846;2024-03-23T12:45:38;8.20;83.30
52787;DHT22;38661;53.152;5.846;2024-03-23T12:48:04;8.40;81.20
52787;DHT22;38661;53.152;5.846;2024-03-23T12:50:30;8.40;78.90
52787;DHT22;38661;53.152;5.846;2024-03-23T12:52:55;8.40;79.00
52787;DHT22;38661;53.152;5.846;2024-03-23T12:55:21;8.30;79.70
52787;DHT22;38661;53.152;5.846;2024-03-23T12:57:47;8.30;81.40
52787;DHT22;38661;53.152;5.846;2024-03-23T13:00:13;8.00;82.20
52787;DHT22;38661;53.152;5.846;2024-03-23T13:02:41;7.90;83.30
52787;DHT22;38661;53.152;5.846;2024-03-23T13:05:07;7.90;82.70
52787;DHT22;38661;53.152;5.846;2024-03-23T13:07:34;7.70;83.10
52787;DHT22;38661;53.152;5.846;2024-03-23T13:10:01;7.80;84.30
52787;DHT22;38661;53.152;5.846;2024-03-23T13:12:27;8.00;84.20
52787;DHT22;38661;53.152;5.846;2024-03-23T13:14:54;8.30;84.00
52787;DHT22;38661;53.152;5.846;2024-03-23T13:17:20;8.50;82.40
52787;DHT22;38661;53.152;5.846;2024-03-23T13:19:45;8.40;82.00
52787;DHT22;38661;53.152;5.846;2024-03-23T13:22:11;8.10;80.80
52787;DHT22;38661;53.152;5.846;2024-03-23T13:24:37;7.80;82.10
52787;DHT22;38661;53.152;5.846;2024-03-23T13:27:04;7.50;82.70
52787;DHT22;38661;53.152;5.846;2024-03-23T13:29:33;7.50;83.80
52787;DHT22;38661;53.152;5.846;2024-03-23T13:32:03;7.60;84.30
52787;DHT22;38661;53.152;5.846;2024-03-23T13:34:29;7.70;85.10
52787;DHT22;38661;53.152;5.846;2024-03-23T13:36:55;7.70;85.80
52787;DHT22;38661;53.152;5.846;2024-03-23T13:39:24;7.60;86.10
52787;DHT22;38661;53.152;5.846;2024-03-23T13:41:51;7.60;85.80
52787;DHT22;38661;53.152;5.846;2024-03-23T13:44:16;7.80;85.80
52787;DHT22;38661;53.152;5.846;2024-03-23T13:46:43;8.10;84.60
52787;DHT22;38661;53.152;5.846;2024-03-23T13:49:27;8.30;83.30
52787;DHT22;38661;53.152;5.846;2024-03-23T13:51:54;8.50;81.70
52787;DHT22;38661;53.152;5.846;2024-03-23T13:54:21;8.70;80.10
52787;DHT22;38661;53.152;5.846;2024-03-23T13:56:50;9.00;79.40
52787;DHT22;38661;53.152;5.846;2024-03-23T13:59:16;9.20;79.30
52787;DHT22;38661;53.152;5.846;2024-03-23T14:01:43;9.10;78.90
52787;DHT22;38661;53.152;5.846;2024-03-23T14:04:09;9.10;78.80
52787;DHT22;38661;53.152;5.846;2024-03-23T14:06:35;9.20;77.40
52787;DHT22;38661;53.152;5.846;2024-03-23T14:09:00;9.40;76.10
52787;DHT22;38661;53.152;5.846;2024-03-23T14:11:26;9.60;74.00
52787;DHT22;38661;53.152;5.846;2024-03-23T14:13:54;9.50;73.80
52787;DHT22;38661;53.152;5.846;2024-03-23T14:16:20;9.30;73.60
52787;DHT22;38661;53.152;5.846;2024-03-23T14:18:49;9.10;74.30
52787;DHT22;38661;53.152;5.846;2024-03-23T14:21:14;8.80;74.70
52787;DHT22;38661;53.152;5.846;2024-03-23T14:23:40;8.50;75.70
52787;DHT22;38661;53.152;5.846;2024-03-23T14:26:08;8.50;75.10
52787;DHT22;38661;53.152;5.846;2024-03-23T14:28:34;8.50;75.40
52787;DHT22;38661;53.152;5.846;2024-03-23T14:31:00;8.50;75.60
52787;DHT22;38661;53.152;5.846;2024-03-23T14:33:29;8.70;75.80
52787;DHT22;38661;53.152;5.846;2024-03-23T14:35:56;8.70;76.50
52787;DHT22;38661;53.152;5.846;2024-03-23T14:38:25;8.60;77.00
52787;DHT22;38661;53.152;5.846;2024-03-23T14:40:51;8.60;77.20
52787;DHT22;38661;53.152;5.846;2024-03-23T14:43:18;8.80;76.80
52787;DHT22;38661;53.152;5.846;2024-03-23T14:48:31;9.50;74.40
52787;DHT22;38661;53.152;5.846;2024-03-23T14:50:58;9.80;73.80
52787;DHT22;38661;53.152;5.846;2024-03-23T14:53:25;10.10;72.90
52787;DHT22;38661;53.152;5.846;2024-03-23T14:55:53;10.20;72.70
52787;DHT22;38661;53.152;5.846;2024-03-23T14:58:19;10.30;72.30
52787;DHT22;38661;53.152;5.846;2024-03-23T15:00:45;10.30;73.10
52787;DHT22;38661;53.152;5.846;2024-03-23T15:03:10;10.00;71.40
52787;DHT22;38661;53.152;5.846;2024-03-23T15:05:36;9.80;70.80
52787;DHT22;38661;53.152;5.846;2024-03-23T15:08:03;9.70;71.70
52787;DHT22;38661;53.152;5.846;2024-03-23T15:10:29;9.90;71.90
52787;DHT22;38661;53.152;5.846;2024-03-23T15:12:54;10.00;71.10
52787;DHT22;38661;53.152;5.846;2024-03-23T15:15:20;10.20;70.90
52787;DHT22;38661;53.152;5.846;2024-03-23T15:17:46;10.50;70.60
52787;DHT22;38661;53.152;5.846;2024-03-23T15:20:11;10.50;69.80
52787;DHT22;38661;53.152;5.846;2024-03-23T15:22:38;10.50;68.20
52787;DHT22;38661;53.152;5.846;2024-03-23T15:25:04;10.20;68.00
52787;DHT22;38661;53.152;5.846;2024-03-23T15:27:29;10.00;68.70
52787;DHT22;38661;53.152;5.846;2024-03-23T15:29:58;10.10;69.90
52787;DHT22;38661;53.152;5.846;2024-03-23T15:32:24;9.90;70.00
52787;DHT22;38661;53.152;5.846;2024-03-23T15:34:49;9.60;70.60
52787;DHT22;38661;53.152;5.846;2024-03-23T15:37:15;9.40;71.50
52787;DHT22;38661;53.152;5.846;2024-03-23T15:39:41;9.10;73.40
52787;DHT22;38661;53.152;5.846;2024-03-23T15:42:07;9.30;74.30
52787;DHT22;38661;53.152;5.846;2024-03-23T15:44:33;9.40;73.50
52787;DHT22;38661;53.152;5.846;2024-03-23T15:46:59;9.50;73.10
52787;DHT22;38661;53.152;5.846;2024-03-23T15:49:24;9.60;72.40
52787;DHT22;38661;53.152;5.846;2024-03-23T15:51:50;9.70;72.50
52787;DHT22;38661;53.152;5.846;2024-03-23T15:54:16;9.70;72.40
52787;DHT22;38661;53.152;5.846;2024-03-23T15:56:41;9.80;72.70
52787;DHT22;38661;53.152;5.846;2024-03-23T15:59:07;9.80;73.30
52787;DHT22;38661;53.152;5.846;2024-03-23T16:01:33;9.70;73.00
52787;DHT22;38661;53.152;5.846;2024-03-23T16:04:01;9.50;73.50
52787;DHT22;38661;53.152;5.846;2024-03-23T16:06:27;9.40;72.00
52787;DHT22;38661;53.152;5.846;2024-03-23T16:08:53;9.30;72.80
52787;DHT22;38661;53.152;5.846;2024-03-23T16:11:18;9.50;72.40
52787;DHT22;38661;53.152;5.846;2024-03-23T16:13:45;9.50;72.70
52787;DHT22;38661;53.152;5.846;2024-03-23T16:16:12;9.60;71.80
52787;DHT22;38661;53.152;5.846;2024-03-23T16:18:38;9.80;69.90
52787;DHT22;38661;53.152;5.846;2024-03-23T16:21:07;9.60;70.20
52787;DHT22;38661;53.152;5.846;2024-03-23T16:23:34;9.50;70.30
52787;DHT22;38661;53.152;5.846;2024-03-23T16:26:03;9.30;71.60
52787;DHT22;38661;53.152;5.846;2024-03-23T16:28:30;9.20;71.10
52787;DHT22;38661;53.152;5.846;2024-03-23T16:31:04;9.10;71.60
52787;DHT22;38661;53.152;5.846;2024-03-23T16:33:32;9.00;71.90
52787;DHT22;38661;53.152;5.846;2024-03-23T16:35:59;9.20;72.20
52787;DHT22;38661;53.152;5.846;2024-03-23T16:38:27;9.40;72.00
52787;DHT22;38661;53.152;5.846;2024-03-23T16:41:01;9.30;71.90
52787;DHT22;38661;53.152;5.846;2024-03-23T16:43:28;9.00;72.20
52787;DHT22;38661;53.152;5.846;2024-03-23T16:45:58;8.80;72.10
52787;DHT22;38661;53.152;5.846;2024-03-23T16:48:29;8.50;72.20
52787;DHT22;38661;53.152;5.846;2024-03-23T16:51:02;8.40;73.30